Aviation Digital Data Service (ADDS)

Output produced by METARs form (2248 UTC 15 February 2019)
found at http://www.aviationweather.gov/metar/data/
 
Forecast for: TBPB (GRANTLEY ADAMS , BB)
Text: TAF TBPB 151700Z 1518/1618 10020KT 9999 SCT018 BKN036
Forecast period: 1800 UTC 15 February 2019 to 1800 UTC 16 February 2019
Forecast type: FROM: standard forecast or significant change
Winds: from the E (100 degrees) at 23 MPH (20 knots; 10.3 m/s)
Visibility: 6 or more miles 10+ km)
Ceiling: 3600 feet AGL
Clouds: scattered clouds at 1800 feet AGL
broken clouds at 3600 feet AGL
Weather: no significant weather forecast for this period